Weather


ICAO METAR
KAPA KAPA 180253Z 13004KT 10SM FEW120 FEW220 22/11 A3028 RMK AO2 SLP191 T02170106 53007
KASE KASE 180253Z 16009G18KT 10SM FEW090 18/07 A3037 RMK AO2 SLP167 T01830067 53010
KBJC KBJC 180345Z 26005KT 10SM SCT120 21/08 A3028
KBKF KBKF 180258Z 14009KT 10SM FEW110 FEW220 20/10 A3027 RMK AO2A SLP185 T02010102 53005
KCFO KCFO 180335Z AUTO 16006KT 10SM CLR 20/10 A3028 RMK AO2 T01950102
KCOS KCOS 180254Z 08006KT 10SM FEW060 BKN220 19/15 A3034 RMK AO2 SLP193 T01890150 53012 $
KCPR KCPR 180253Z 07004KT 10SM CLR 20/13 A3021 RMK AO2 SLP168 T02000128 53008
KCYS KCYS 180253Z 18008KT 10SM CLR 22/06 A3028 RMK AO2 SLP167 T02170061 53007
KDEN KDEN 180253Z 16009KT 10SM FEW100 FEW160 18/09 A3024 RMK AO2 SLP180 T01830094 53005
KEGE KEGE 180256Z AUTO 00000KT 10SM CLR 20/07 A3029 RMK AO2 SLP154 T02000072 53010
KFCS KFCS 180258Z AUTO 12007KT 10SM BKN210 19/14 A3028 RMK AO2 SLP206 T01900136 53010 $
KFMN KFMN 180253Z 10016KT 10SM CLR 22/14 A3020 RMK AO2 SLP168 T02170139 53013
KFNL KFNL 180256Z 15006KT 10SM CLR 23/07 A3022 RMK AO2 SLP174 T02330067 53003
KGJT KGJT 180253Z 12007KT 10SM CLR 27/11 A3009 RMK AO2 SLP115 T02720106 53002
KGUR KGUR 180258Z AUTO 06020G25KT 9SM BKN140 24/09 A3015 RMK AO2 LTG DSNT NE-E RAB0158E28RAB34E53 SLP194 P0000 60000 T02380094 53012 $
KPUB KPUB 180253Z 13009KT 10SM CLR 23/15 A3022 RMK AO2 SLP176 T02280150 53008
KRAP KRAP 180252Z 29006KT 10SM CLR 19/11 A3011 RMK AO2 SLP177 T01890111 50007
KRCA KRCA 180256Z AUTO 27007KT 10SM CLR 20/11 A3009 RMK AO2 SLP169 T02010113 50009 $

Surface Data
Click here.

This is a composite map contain the following analyses: radar summary (color filled areas), surface data plot (composite station model), frontal locations (in various bold lines) and pressure contours (in thin blue lines).